sensor_id;sensor_type;location;lat;lon;timestamp;P1;durP1;ratioP1;P2;durP2;ratioP2
76477;SDS011;65309;49.790;18.972;2024-01-06T00:03:01;9.93;;;3.40;;
76477;SDS011;65309;49.790;18.972;2024-01-06T00:08:04;6.35;;;3.75;;
76477;SDS011;65309;49.790;18.972;2024-01-06T00:13:08;5.70;;;3.17;;
76477;SDS011;65309;49.790;18.972;2024-01-06T00:18:11;14.85;;;6.07;;
76477;SDS011;65309;49.790;18.972;2024-01-06T00:23:13;7.00;;;2.97;;
76477;SDS011;65309;49.790;18.972;2024-01-06T00:28:17;11.43;;;2.83;;
76477;SDS011;65309;49.790;18.972;2024-01-06T00:33:19;6.85;;;3.28;;
76477;SDS011;65309;49.790;18.972;2024-01-06T00:38:22;18.42;;;6.40;;
76477;SDS011;65309;49.790;18.972;2024-01-06T00:43:25;14.00;;;5.28;;
76477;SDS011;65309;49.790;18.972;2024-01-06T00:48:28;5.05;;;2.42;;
76477;SDS011;65309;49.790;18.972;2024-01-06T00:53:30;7.70;;;3.90;;
76477;SDS011;65309;49.790;18.972;2024-01-06T00:58:34;8.93;;;3.08;;
76477;SDS011;65309;49.790;18.972;2024-01-06T01:03:36;7.13;;;4.43;;
76477;SDS011;65309;49.790;18.972;2024-01-06T01:08:39;22.30;;;10.20;;
76477;SDS011;65309;49.790;18.972;2024-01-06T01:13:42;40.17;;;20.75;;
76477;SDS011;65309;49.790;18.972;2024-01-06T01:18:44;37.70;;;18.30;;
76477;SDS011;65309;49.790;18.972;2024-01-06T01:23:47;14.40;;;8.35;;
76477;SDS011;65309;49.790;18.972;2024-01-06T01:28:50;18.00;;;8.15;;
76477;SDS011;65309;49.790;18.972;2024-01-06T01:33:53;3.75;;;2.05;;
76477;SDS011;65309;49.790;18.972;2024-01-06T01:38:55;3.85;;;2.60;;
76477;SDS011;65309;49.790;18.972;2024-01-06T01:43:59;3.95;;;2.05;;
76477;SDS011;65309;49.790;18.972;2024-01-06T01:49:01;6.43;;;3.58;;
76477;SDS011;65309;49.790;18.972;2024-01-06T01:54:05;38.60;;;20.35;;
76477;SDS011;65309;49.790;18.972;2024-01-06T01:59:10;47.40;;;24.10;;
76477;SDS011;65309;49.790;18.972;2024-01-06T02:04:13;36.08;;;23.08;;
76477;SDS011;65309;49.790;18.972;2024-01-06T02:09:16;45.95;;;23.67;;
76477;SDS011;65309;49.790;18.972;2024-01-06T02:14:19;45.80;;;22.65;;
76477;SDS011;65309;49.790;18.972;2024-01-06T02:19:22;50.03;;;24.77;;
76477;SDS011;65309;49.790;18.972;2024-01-06T02:24:25;37.67;;;21.20;;
76477;SDS011;65309;49.790;18.972;2024-01-06T02:29:28;42.47;;;19.50;;
76477;SDS011;65309;49.790;18.972;2024-01-06T02:34:30;42.70;;;21.23;;
76477;SDS011;65309;49.790;18.972;2024-01-06T02:39:36;45.00;;;21.73;;
76477;SDS011;65309;49.790;18.972;2024-01-06T02:49:40;42.50;;;23.02;;
76477;SDS011;65309;49.790;18.972;2024-01-06T02:54:44;56.50;;;24.08;;
76477;SDS011;65309;49.790;18.972;2024-01-06T02:59:46;41.33;;;21.17;;
76477;SDS011;65309;49.790;18.972;2024-01-06T03:04:48;41.28;;;21.45;;
76477;SDS011;65309;49.790;18.972;2024-01-06T03:09:52;29.63;;;19.02;;
76477;SDS011;65309;49.790;18.972;2024-01-06T03:14:54;37.50;;;18.60;;
76477;SDS011;65309;49.790;18.972;2024-01-06T03:19:56;33.60;;;18.60;;
76477;SDS011;65309;49.790;18.972;2024-01-06T03:25:00;31.63;;;15.88;;
76477;SDS011;65309;49.790;18.972;2024-01-06T03:30:03;34.80;;;15.18;;
76477;SDS011;65309;49.790;18.972;2024-01-06T03:35:06;33.40;;;15.98;;
76477;SDS011;65309;49.790;18.972;2024-01-06T03:40:11;24.48;;;13.77;;
76477;SDS011;65309;49.790;18.972;2024-01-06T03:45:14;25.00;;;12.80;;
76477;SDS011;65309;49.790;18.972;2024-01-06T03:50:16;23.90;;;12.75;;
76477;SDS011;65309;49.790;18.972;2024-01-06T03:55:20;19.67;;;12.23;;
76477;SDS011;65309;49.790;18.972;2024-01-06T04:00:22;18.85;;;9.27;;
76477;SDS011;65309;49.790;18.972;2024-01-06T04:05:27;19.35;;;12.15;;
76477;SDS011;65309;49.790;18.972;2024-01-06T04:10:30;14.68;;;8.57;;
76477;SDS011;65309;49.790;18.972;2024-01-06T04:15:32;18.52;;;8.88;;
76477;SDS011;65309;49.790;18.972;2024-01-06T04:20:35;17.35;;;11.32;;
76477;SDS011;65309;49.790;18.972;2024-01-06T04:30:42;13.65;;;8.10;;
76477;SDS011;65309;49.790;18.972;2024-01-06T04:35:44;16.02;;;8.65;;
76477;SDS011;65309;49.790;18.972;2024-01-06T04:40:47;18.58;;;9.50;;
76477;SDS011;65309;49.790;18.972;2024-01-06T04:45:50;17.27;;;9.15;;
76477;SDS011;65309;49.790;18.972;2024-01-06T04:50:52;14.13;;;7.05;;
76477;SDS011;65309;49.790;18.972;2024-01-06T04:55:56;14.40;;;6.63;;
76477;SDS011;65309;49.790;18.972;2024-01-06T05:00:58;19.65;;;8.88;;
76477;SDS011;65309;49.790;18.972;2024-01-06T05:06:00;11.82;;;7.68;;
76477;SDS011;65309;49.790;18.972;2024-01-06T05:11:04;9.15;;;6.50;;
76477;SDS011;65309;49.790;18.972;2024-01-06T05:16:07;13.82;;;7.22;;
76477;SDS011;65309;49.790;18.972;2024-01-06T05:21:10;12.60;;;6.75;;
76477;SDS011;65309;49.790;18.972;2024-01-06T05:26:13;18.23;;;7.82;;
76477;SDS011;65309;49.790;18.972;2024-01-06T05:31:16;16.75;;;8.65;;
76477;SDS011;65309;49.790;18.972;2024-01-06T05:36:18;16.77;;;8.10;;
76477;SDS011;65309;49.790;18.972;2024-01-06T05:41:22;14.35;;;7.95;;
76477;SDS011;65309;49.790;18.972;2024-01-06T05:46:25;11.95;;;6.43;;
76477;SDS011;65309;49.790;18.972;2024-01-06T05:51:27;14.38;;;6.40;;
76477;SDS011;65309;49.790;18.972;2024-01-06T05:56:31;11.50;;;5.13;;
76477;SDS011;65309;49.790;18.972;2024-01-06T06:01:33;9.80;;;5.80;;
76477;SDS011;65309;49.790;18.972;2024-01-06T06:06:35;12.63;;;6.70;;
76477;SDS011;65309;49.790;18.972;2024-01-06T06:11:39;7.47;;;5.30;;
76477;SDS011;65309;49.790;18.972;2024-01-06T06:16:41;11.02;;;7.82;;
76477;SDS011;65309;49.790;18.972;2024-01-06T06:21:43;11.27;;;7.70;;
76477;SDS011;65309;49.790;18.972;2024-01-06T06:26:49;10.32;;;6.07;;
76477;SDS011;65309;49.790;18.972;2024-01-06T06:31:51;8.30;;;5.15;;
76477;SDS011;65309;49.790;18.972;2024-01-06T06:36:54;7.82;;;4.55;;
76477;SDS011;65309;49.790;18.972;2024-01-06T06:41:57;9.05;;;5.85;;
76477;SDS011;65309;49.790;18.972;2024-01-06T06:47:00;5.47;;;4.35;;
76477;SDS011;65309;49.790;18.972;2024-01-06T06:52:03;7.68;;;4.35;;
76477;SDS011;65309;49.790;18.972;2024-01-06T06:57:07;10.35;;;5.35;;
76477;SDS011;65309;49.790;18.972;2024-01-06T07:02:09;7.30;;;5.03;;
76477;SDS011;65309;49.790;18.972;2024-01-06T07:07:12;11.15;;;5.25;;
76477;SDS011;65309;49.790;18.972;2024-01-06T07:12:16;7.28;;;5.35;;
76477;SDS011;65309;49.790;18.972;2024-01-06T07:17:18;8.25;;;5.72;;
76477;SDS011;65309;49.790;18.972;2024-01-06T07:22:20;9.15;;;4.78;;
76477;SDS011;65309;49.790;18.972;2024-01-06T07:27:24;8.57;;;5.85;;
76477;SDS011;65309;49.790;18.972;2024-01-06T07:32:26;9.50;;;5.88;;
76477;SDS011;65309;49.790;18.972;2024-01-06T07:37:29;17.85;;;8.52;;
76477;SDS011;65309;49.790;18.972;2024-01-06T07:42:32;24.17;;;8.98;;
76477;SDS011;65309;49.790;18.972;2024-01-06T07:47:35;10.45;;;6.15;;
76477;SDS011;65309;49.790;18.972;2024-01-06T07:52:37;12.27;;;5.68;;
76477;SDS011;65309;49.790;18.972;2024-01-06T07:57:41;7.80;;;4.70;;
76477;SDS011;65309;49.790;18.972;2024-01-06T08:02:44;11.38;;;4.80;;
76477;SDS011;65309;49.790;18.972;2024-01-06T08:07:46;9.88;;;5.10;;
76477;SDS011;65309;49.790;18.972;2024-01-06T08:12:50;7.63;;;4.95;;
76477;SDS011;65309;49.790;18.972;2024-01-06T08:17:52;12.27;;;8.05;;
76477;SDS011;65309;49.790;18.972;2024-01-06T08:22:55;12.38;;;7.55;;
76477;SDS011;65309;49.790;18.972;2024-01-06T08:27:59;19.40;;;10.18;;
76477;SDS011;65309;49.790;18.972;2024-01-06T08:33:01;22.25;;;12.00;;
76477;SDS011;65309;49.790;18.972;2024-01-06T08:38:03;18.63;;;11.57;;
76477;SDS011;65309;49.790;18.972;2024-01-06T08:43:07;13.63;;;9.32;;
76477;SDS011;65309;49.790;18.972;2024-01-06T08:48:09;17.42;;;8.93;;
76477;SDS011;65309;49.790;18.972;2024-01-06T08:53:13;16.73;;;10.38;;
76477;SDS011;65309;49.790;18.972;2024-01-06T08:58:17;19.50;;;11.93;;
76477;SDS011;65309;49.790;18.972;2024-01-06T09:03:20;61.95;;;30.42;;
76477;SDS011;65309;49.790;18.972;2024-01-06T09:08:27;72.22;;;40.33;;
76477;SDS011;65309;49.790;18.972;2024-01-06T09:13:31;110.75;;;56.72;;
76477;SDS011;65309;49.790;18.972;2024-01-06T09:18:34;95.18;;;51.08;;
76477;SDS011;65309;49.790;18.972;2024-01-06T09:23:36;105.03;;;55.50;;
76477;SDS011;65309;49.790;18.972;2024-01-06T09:28:40;96.55;;;54.35;;
76477;SDS011;65309;49.790;18.972;2024-01-06T09:33:42;102.75;;;54.63;;
76477;SDS011;65309;49.790;18.972;2024-01-06T09:38:45;91.57;;;50.03;;
76477;SDS011;65309;49.790;18.972;2024-01-06T09:43:48;91.32;;;45.47;;
76477;SDS011;65309;49.790;18.972;2024-01-06T09:48:50;91.30;;;49.47;;
76477;SDS011;65309;49.790;18.972;2024-01-06T09:53:58;86.68;;;46.92;;
76477;SDS011;65309;49.790;18.972;2024-01-06T09:59:03;93.72;;;49.50;;
76477;SDS011;65309;49.790;18.972;2024-01-06T10:04:05;102.57;;;49.13;;
76477;SDS011;65309;49.790;18.972;2024-01-06T10:09:08;99.03;;;54.65;;
76477;SDS011;65309;49.790;18.972;2024-01-06T10:14:11;77.07;;;44.00;;
76477;SDS011;65309;49.790;18.972;2024-01-06T10:19:14;88.25;;;45.65;;
76477;SDS011;65309;49.790;18.972;2024-01-06T10:24:17;81.95;;;40.03;;
76477;SDS011;65309;49.790;18.972;2024-01-06T10:29:21;78.18;;;39.47;;
76477;SDS011;65309;49.790;18.972;2024-01-06T10:34:24;80.13;;;40.80;;
76477;SDS011;65309;49.790;18.972;2024-01-06T10:39:26;97.28;;;45.90;;
76477;SDS011;65309;49.790;18.972;2024-01-06T10:44:32;82.35;;;36.30;;
76477;SDS011;65309;49.790;18.972;2024-01-06T10:49:36;76.93;;;37.33;;
76477;SDS011;65309;49.790;18.972;2024-01-06T10:54:39;75.80;;;36.10;;
76477;SDS011;65309;49.790;18.972;2024-01-06T10:59:44;71.63;;;37.88;;
76477;SDS011;65309;49.790;18.972;2024-01-06T11:04:50;70.97;;;35.50;;
76477;SDS011;65309;49.790;18.972;2024-01-06T11:09:55;68.18;;;36.30;;
76477;SDS011;65309;49.790;18.972;2024-01-06T11:15:01;61.92;;;33.65;;
76477;SDS011;65309;49.790;18.972;2024-01-06T11:20:06;87.45;;;37.55;;
76477;SDS011;65309;49.790;18.972;2024-01-06T11:25:15;62.30;;;33.22;;
76477;SDS011;65309;49.790;18.972;2024-01-06T11:30:20;74.93;;;34.38;;
76477;SDS011;65309;49.790;18.972;2024-01-06T11:35:25;71.43;;;36.65;;
76477;SDS011;65309;49.790;18.972;2024-01-06T11:40:33;72.60;;;33.00;;
76477;SDS011;65309;49.790;18.972;2024-01-06T11:45:39;78.05;;;35.78;;
76477;SDS011;65309;49.790;18.972;2024-01-06T11:50:46;68.20;;;36.03;;
76477;SDS011;65309;49.790;18.972;2024-01-06T11:55:48;61.47;;;33.63;;
76477;SDS011;65309;49.790;18.972;2024-01-06T12:00:58;71.28;;;35.67;;
76477;SDS011;65309;49.790;18.972;2024-01-06T12:06:01;67.13;;;32.92;;
76477;SDS011;65309;49.790;18.972;2024-01-06T12:11:04;51.42;;;23.92;;
76477;SDS011;65309;49.790;18.972;2024-01-06T12:16:08;46.47;;;24.13;;
76477;SDS011;65309;49.790;18.972;2024-01-06T12:21:12;64.32;;;32.42;;
76477;SDS011;65309;49.790;18.972;2024-01-06T12:26:15;55.13;;;27.33;;
76477;SDS011;65309;49.790;18.972;2024-01-06T12:31:20;53.05;;;27.75;;
76477;SDS011;65309;49.790;18.972;2024-01-06T12:36:23;61.85;;;26.90;;
76477;SDS011;65309;49.790;18.972;2024-01-06T12:41:28;44.75;;;24.05;;
76477;SDS011;65309;49.790;18.972;2024-01-06T12:46:32;37.83;;;19.98;;
76477;SDS011;65309;49.790;18.972;2024-01-06T12:51:34;62.28;;;27.08;;
76477;SDS011;65309;49.790;18.972;2024-01-06T12:56:36;59.50;;;28.00;;
76477;SDS011;65309;49.790;18.972;2024-01-06T13:01:40;49.67;;;22.50;;
76477;SDS011;65309;49.790;18.972;2024-01-06T13:06:43;53.05;;;25.60;;
76477;SDS011;65309;49.790;18.972;2024-01-06T13:11:46;54.30;;;26.98;;
76477;SDS011;65309;49.790;18.972;2024-01-06T13:16:50;42.58;;;21.98;;
76477;SDS011;65309;49.790;18.972;2024-01-06T13:21:52;58.72;;;25.33;;
76477;SDS011;65309;49.790;18.972;2024-01-06T13:26:55;45.13;;;24.45;;
76477;SDS011;65309;49.790;18.972;2024-01-06T13:31:59;47.03;;;20.48;;
76477;SDS011;65309;49.790;18.972;2024-01-06T13:37:01;43.90;;;21.90;;
76477;SDS011;65309;49.790;18.972;2024-01-06T13:42:04;50.05;;;23.15;;
76477;SDS011;65309;49.790;18.972;2024-01-06T13:47:08;41.83;;;20.00;;
76477;SDS011;65309;49.790;18.972;2024-01-06T13:52:10;38.67;;;18.70;;
76477;SDS011;65309;49.790;18.972;2024-01-06T13:57:13;45.22;;;20.92;;
76477;SDS011;65309;49.790;18.972;2024-01-06T14:02:16;35.63;;;17.85;;
76477;SDS011;65309;49.790;18.972;2024-01-06T14:07:19;38.97;;;20.33;;
76477;SDS011;65309;49.790;18.972;2024-01-06T14:12:22;36.42;;;20.10;;
76477;SDS011;65309;49.790;18.972;2024-01-06T14:17:26;33.50;;;18.70;;
76477;SDS011;65309;49.790;18.972;2024-01-06T14:22:28;31.10;;;18.92;;
76477;SDS011;65309;49.790;18.972;2024-01-06T14:27:31;33.13;;;15.82;;
76477;SDS011;65309;49.790;18.972;2024-01-06T14:32:34;36.90;;;20.20;;
76477;SDS011;65309;49.790;18.972;2024-01-06T14:37:38;38.30;;;20.25;;
76477;SDS011;65309;49.790;18.972;2024-01-06T14:42:40;36.72;;;18.42;;
76477;SDS011;65309;49.790;18.972;2024-01-06T14:47:44;24.30;;;16.08;;
76477;SDS011;65309;49.790;18.972;2024-01-06T14:52:49;38.97;;;19.13;;
76477;SDS011;65309;49.790;18.972;2024-01-06T14:57:51;29.08;;;17.65;;
76477;SDS011;65309;49.790;18.972;2024-01-06T15:02:55;28.13;;;15.80;;
76477;SDS011;65309;49.790;18.972;2024-01-06T15:07:57;27.60;;;16.42;;
76477;SDS011;65309;49.790;18.972;2024-01-06T15:13:00;25.95;;;17.27;;
76477;SDS011;65309;49.790;18.972;2024-01-06T15:18:04;23.38;;;14.00;;
76477;SDS011;65309;49.790;18.972;2024-01-06T15:23:07;37.78;;;20.75;;
76477;SDS011;65309;49.790;18.972;2024-01-06T15:28:10;41.78;;;20.73;;
76477;SDS011;65309;49.790;18.972;2024-01-06T15:33:13;23.17;;;12.52;;
76477;SDS011;65309;49.790;18.972;2024-01-06T15:38:16;30.92;;;17.42;;
76477;SDS011;65309;49.790;18.972;2024-01-06T15:43:19;16.75;;;7.40;;
76477;SDS011;65309;49.790;18.972;2024-01-06T15:48:24;22.15;;;13.07;;
76477;SDS011;65309;49.790;18.972;2024-01-06T15:53:27;32.75;;;15.23;;
76477;SDS011;65309;49.790;18.972;2024-01-06T15:58:31;10.00;;;7.25;;
76477;SDS011;65309;49.790;18.972;2024-01-06T16:08:37;18.08;;;10.45;;
76477;SDS011;65309;49.790;18.972;2024-01-06T16:13:39;12.80;;;6.78;;
76477;SDS011;65309;49.790;18.972;2024-01-06T16:18:43;22.95;;;12.63;;
76477;SDS011;65309;49.790;18.972;2024-01-06T16:23:48;10.27;;;6.90;;
76477;SDS011;65309;49.790;18.972;2024-01-06T16:28:50;14.55;;;8.93;;
76477;SDS011;65309;49.790;18.972;2024-01-06T16:33:54;16.40;;;8.63;;
76477;SDS011;65309;49.790;18.972;2024-01-06T16:38:57;10.48;;;7.47;;
76477;SDS011;65309;49.790;18.972;2024-01-06T16:43:59;17.75;;;8.18;;
76477;SDS011;65309;49.790;18.972;2024-01-06T16:49:03;7.65;;;5.40;;
76477;SDS011;65309;49.790;18.972;2024-01-06T16:54:05;14.85;;;9.43;;
76477;SDS011;65309;49.790;18.972;2024-01-06T16:59:08;19.02;;;10.93;;
76477;SDS011;65309;49.790;18.972;2024-01-06T17:04:13;10.45;;;7.30;;
76477;SDS011;65309;49.790;18.972;2024-01-06T17:09:15;8.60;;;5.20;;
76477;SDS011;65309;49.790;18.972;2024-01-06T17:14:18;9.57;;;6.55;;
76477;SDS011;65309;49.790;18.972;2024-01-06T17:19:22;17.52;;;10.52;;
76477;SDS011;65309;49.790;18.972;2024-01-06T17:24:24;10.02;;;7.10;;
76477;SDS011;65309;49.790;18.972;2024-01-06T17:29:27;21.20;;;10.68;;
76477;SDS011;65309;49.790;18.972;2024-01-06T17:34:30;25.73;;;13.68;;
76477;SDS011;65309;49.790;18.972;2024-01-06T17:39:33;13.32;;;8.13;;
76477;SDS011;65309;49.790;18.972;2024-01-06T17:44:35;12.77;;;7.80;;
76477;SDS011;65309;49.790;18.972;2024-01-06T17:49:41;15.50;;;10.50;;
76477;SDS011;65309;49.790;18.972;2024-01-06T17:54:43;15.65;;;9.93;;
76477;SDS011;65309;49.790;18.972;2024-01-06T17:59:46;17.05;;;8.77;;
76477;SDS011;65309;49.790;18.972;2024-01-06T18:04:49;4.95;;;4.40;;
76477;SDS011;65309;49.790;18.972;2024-01-06T18:09:51;11.98;;;8.68;;
76477;SDS011;65309;49.790;18.972;2024-01-06T18:14:54;12.68;;;7.55;;
76477;SDS011;65309;49.790;18.972;2024-01-06T18:19:57;4.75;;;3.70;;
76477;SDS011;65309;49.790;18.972;2024-01-06T18:25:00;15.80;;;6.68;;
76477;SDS011;65309;49.790;18.972;2024-01-06T18:30:02;10.48;;;5.80;;
76477;SDS011;65309;49.790;18.972;2024-01-06T18:35:07;9.35;;;5.18;;
76477;SDS011;65309;49.790;18.972;2024-01-06T18:40:10;5.93;;;5.32;;
76477;SDS011;65309;49.790;18.972;2024-01-06T18:45:13;6.28;;;5.03;;
76477;SDS011;65309;49.790;18.972;2024-01-06T18:50:17;11.30;;;6.13;;
76477;SDS011;65309;49.790;18.972;2024-01-06T18:55:21;27.85;;;12.55;;
76477;SDS011;65309;49.790;18.972;2024-01-06T19:00:23;9.88;;;6.53;;
76477;SDS011;65309;49.790;18.972;2024-01-06T19:05:27;10.90;;;7.60;;
76477;SDS011;65309;49.790;18.972;2024-01-06T19:10:31;9.90;;;5.65;;
76477;SDS011;65309;49.790;18.972;2024-01-06T19:15:38;8.95;;;4.57;;
76477;SDS011;65309;49.790;18.972;2024-01-06T19:20:44;4.13;;;3.42;;
76477;SDS011;65309;49.790;18.972;2024-01-06T19:25:47;11.70;;;6.63;;
76477;SDS011;65309;49.790;18.972;2024-01-06T19:30:49;13.32;;;8.30;;
76477;SDS011;65309;49.790;18.972;2024-01-06T19:35:53;13.63;;;8.52;;
76477;SDS011;65309;49.790;18.972;2024-01-06T19:40:55;13.35;;;7.32;;
76477;SDS011;65309;49.790;18.972;2024-01-06T19:45:58;11.35;;;5.15;;
76477;SDS011;65309;49.790;18.972;2024-01-06T19:51:04;8.88;;;5.22;;
76477;SDS011;65309;49.790;18.972;2024-01-06T19:56:07;6.35;;;4.85;;
76477;SDS011;65309;49.790;18.972;2024-01-06T20:01:15;8.63;;;5.57;;
76477;SDS011;65309;49.790;18.972;2024-01-06T20:06:18;7.38;;;4.97;;
76477;SDS011;65309;49.790;18.972;2024-01-06T20:11:21;4.10;;;3.70;;
76477;SDS011;65309;49.790;18.972;2024-01-06T20:16:23;10.85;;;6.32;;
76477;SDS011;65309;49.790;18.972;2024-01-06T20:21:28;9.95;;;4.95;;
76477;SDS011;65309;49.790;18.972;2024-01-06T20:26:30;6.53;;;4.88;;
76477;SDS011;65309;49.790;18.972;2024-01-06T20:31:33;10.68;;;6.65;;
76477;SDS011;65309;49.790;18.972;2024-01-06T20:36:36;5.63;;;3.45;;
76477;SDS011;65309;49.790;18.972;2024-01-06T20:46:41;8.93;;;5.93;;
76477;SDS011;65309;49.790;18.972;2024-01-06T20:51:46;8.88;;;5.60;;
76477;SDS011;65309;49.790;18.972;2024-01-06T20:56:49;6.25;;;4.20;;
76477;SDS011;65309;49.790;18.972;2024-01-06T21:01:51;5.75;;;3.83;;
76477;SDS011;65309;49.790;18.972;2024-01-06T21:06:55;8.27;;;4.57;;
76477;SDS011;65309;49.790;18.972;2024-01-06T21:16:59;6.85;;;3.25;;
76477;SDS011;65309;49.790;18.972;2024-01-06T21:22:03;9.75;;;6.43;;
76477;SDS011;65309;49.790;18.972;2024-01-06T21:27:05;5.82;;;3.80;;
76477;SDS011;65309;49.790;18.972;2024-01-06T21:32:08;9.98;;;6.43;;
76477;SDS011;65309;49.790;18.972;2024-01-06T21:37:12;4.68;;;2.42;;
76477;SDS011;65309;49.790;18.972;2024-01-06T21:42:14;9.02;;;4.78;;
76477;SDS011;65309;49.790;18.972;2024-01-06T21:47:16;3.45;;;1.95;;
76477;SDS011;65309;49.790;18.972;2024-01-06T21:52:20;5.88;;;4.03;;
76477;SDS011;65309;49.790;18.972;2024-01-06T21:57:22;3.65;;;2.60;;
76477;SDS011;65309;49.790;18.972;2024-01-06T22:02:25;4.40;;;2.50;;
76477;SDS011;65309;49.790;18.972;2024-01-06T22:07:28;5.32;;;3.58;;
76477;SDS011;65309;49.790;18.972;2024-01-06T22:12:31;4.40;;;2.28;;
76477;SDS011;65309;49.790;18.972;2024-01-06T22:17:34;6.82;;;5.15;;
76477;SDS011;65309;49.790;18.972;2024-01-06T22:22:38;7.95;;;4.65;;
76477;SDS011;65309;49.790;18.972;2024-01-06T22:27:40;5.10;;;3.97;;
76477;SDS011;65309;49.790;18.972;2024-01-06T22:32:42;5.13;;;3.80;;
76477;SDS011;65309;49.790;18.972;2024-01-06T22:37:46;5.40;;;3.47;;
76477;SDS011;65309;49.790;18.972;2024-01-06T22:42:48;7.30;;;3.88;;
76477;SDS011;65309;49.790;18.972;2024-01-06T22:47:51;4.68;;;2.85;;
76477;SDS011;65309;49.790;18.972;2024-01-06T22:52:54;3.08;;;1.90;;
76477;SDS011;65309;49.790;18.972;2024-01-06T22:57:57;5.15;;;4.22;;
76477;SDS011;65309;49.790;18.972;2024-01-06T23:02:59;6.63;;;3.78;;
76477;SDS011;65309;49.790;18.972;2024-01-06T23:08:05;5.20;;;2.35;;
76477;SDS011;65309;49.790;18.972;2024-01-06T23:13:08;4.53;;;2.83;;
76477;SDS011;65309;49.790;18.972;2024-01-06T23:18:10;6.55;;;4.18;;
76477;SDS011;65309;49.790;18.972;2024-01-06T23:23:14;3.85;;;2.30;;
76477;SDS011;65309;49.790;18.972;2024-01-06T23:28:17;6.55;;;3.72;;
76477;SDS011;65309;49.790;18.972;2024-01-06T23:33:19;8.93;;;3.03;;
76477;SDS011;65309;49.790;18.972;2024-01-06T23:38:23;3.05;;;2.53;;
76477;SDS011;65309;49.790;18.972;2024-01-06T23:43:25;5.10;;;3.90;;
76477;SDS011;65309;49.790;18.972;2024-01-06T23:48:28;8.63;;;4.55;;
76477;SDS011;65309;49.790;18.972;2024-01-06T23:53:31;11.15;;;5.97;;
76477;SDS011;65309;49.790;18.972;2024-01-06T23:58:34;6.97;;;4.50;;
